Time;durP1;ratioP1;P1;durP2;ratioP2;P2;SDS_P1;SDS_P2;PMS_P1;PMS_P2;Temp;Humidity;BMP_temperature;BMP_pressure;BME280_temperature;BME280_humidity;BME280_pressure;Samples;Min_cycle;Max_cycle;Signal;HPM_P1;HPM_P2
2021/04/13 00:01:31;;;;;;;;;;;14.90;40.70;;;;;;5035247;28;75833;-66
2021/04/13 00:04:04;;;;;;;;;;;15.00;40.80;;;;;;5034808;28;74982;-63
2021/04/13 00:06:43;;;;;;;;;;;15.00;41.30;;;;;;5035280;28;74486;-64
2021/04/13 00:09:08;;;;;;;;;;;14.90;40.50;;;;;;5034835;28;75108;-63
2021/04/13 00:11:35;;;;;;;;;;;14.90;39.80;;;;;;5034954;28;74974;-66
2021/04/13 00:14:01;;;;;;;;;;;14.90;38.50;;;;;;5033460;28;78590;-64
2021/04/13 00:16:29;;;;;;;;;;;14.90;38.80;;;;;;5034853;28;74538;-64
2021/04/13 00:18:56;;;;;;;;;;;14.90;38.60;;;;;;5033386;28;77334;-65
2021/04/13 00:21:29;;;;;;;;;;;14.90;38.60;;;;;;5033421;28;77935;-65
2021/04/13 00:23:56;;;;;;;;;;;15.00;38.30;;;;;;5034611;28;75320;-63
2021/04/13 00:26:23;;;;;;;;;;;15.00;38.60;;;;;;5035127;28;74484;-64
2021/04/13 00:28:49;;;;;;;;;;;15.00;38.80;;;;;;5035034;28;75208;-67
2021/04/13 00:31:38;;;;;;;;;;;15.00;38.90;;;;;;5033110;28;77752;-63
2021/04/13 00:34:05;;;;;;;;;;;15.10;38.60;;;;;;5035045;28;74421;-63
2021/04/13 00:36:30;;;;;;;;;;;15.10;38.60;;;;;;5034572;28;75237;-64
2021/04/13 00:38:56;;;;;;;;;;;15.10;38.40;;;;;;5033189;28;77836;-66
2021/04/13 00:41:23;;;;;;;;;;;15.00;38.60;;;;;;5034296;28;75294;-66
2021/04/13 00:43:51;;;;;;;;;;;15.00;38.50;;;;;;5034280;28;76648;-67
2021/04/13 00:46:22;;;;;;;;;;;15.00;38.70;;;;;;5034795;28;75593;-68
2021/04/13 00:48:49;;;;;;;;;;;15.00;38.80;;;;;;5032999;28;77197;-68
2021/04/13 00:51:20;;;;;;;;;;;15.00;38.70;;;;;;5034267;28;75219;-65
2021/04/13 00:53:48;;;;;;;;;;;15.00;38.90;;;;;;5032719;28;77100;-65
2021/04/13 00:56:14;;;;;;;;;;;15.00;38.80;;;;;;5034432;28;75182;-63
2021/04/13 00:58:42;;;;;;;;;;;15.00;38.60;;;;;;5034181;28;75810;-64
2021/04/13 01:01:18;;;;;;;;;;;15.00;38.30;;;;;;5032731;28;78355;-64
2021/04/13 01:04:01;;;;;;;;;;;15.00;38.70;;;;;;5033180;28;76159;-62
2021/04/13 01:06:27;;;;;;;;;;;15.00;39.80;;;;;;5032533;28;78134;-65
2021/04/13 01:09:00;;;;;;;;;;;14.90;40.00;;;;;;5032594;28;94216;-63
2021/04/13 01:11:27;;;;;;;;;;;14.90;40.50;;;;;;5033873;28;75155;-64
2021/04/13 01:13:56;;;;;;;;;;;14.90;40.30;;;;;;5034271;28;75306;-64
2021/04/13 01:16:23;;;;;;;;;;;14.90;40.00;;;;;;5034421;28;75549;-63
2021/04/13 01:18:51;;;;;;;;;;;14.80;39.80;;;;;;5033716;28;75353;-66
2021/04/13 01:21:17;;;;;;;;;;;14.70;40.10;;;;;;5032403;28;75513;-63
2021/04/13 01:24:31;;;;;;;;;;;14.70;40.20;;;;;;5033956;28;75015;-63
2021/04/13 01:26:33;;;;;;;;;;;14.80;40.50;;;;;;5022362;28;75465;-65
2021/04/13 01:28:59;;;;;;;;;;;14.70;40.50;;;;;;5032189;28;75622;-66
2021/04/13 01:34:42;;;;;;;;;;;14.70;40.40;;;;;;4971216;28;75221;-63
2021/04/13 01:37:31;;;;;;;;;;;14.60;40.60;;;;;;4955287;28;76611;-63
2021/04/13 01:42:27;;;;;;;;;;;14.60;41.70;;;;;;5030690;28;74531;-66
2021/04/13 01:45:12;;;;;;;;;;;14.60;41.60;;;;;;5033482;28;75138;-64
2021/04/13 01:47:38;;;;;;;;;;;14.60;41.10;;;;;;5033813;28;75288;-61
2021/04/13 01:50:12;;;;;;;;;;;14.60;41.30;;;;;;5034146;28;75089;-61
2021/04/13 01:52:40;;;;;;;;;;;14.60;41.30;;;;;;5033711;28;75403;-63
2021/04/13 01:55:08;;;;;;;;;;;14.70;41.00;;;;;;5031869;28;75270;-62
2021/04/13 01:57:39;;;;;;;;;;;14.70;41.20;;;;;;5033641;28;74804;-61
2021/04/13 02:00:26;;;;;;;;;;;14.70;41.10;;;;;;5033710;28;74988;-64
2021/04/13 02:03:12;;;;;;;;;;;14.70;40.90;;;;;;5031619;28;74529;-63
2021/04/13 02:05:39;;;;;;;;;;;14.70;41.00;;;;;;5030466;28;76080;-63
2021/04/13 02:08:20;;;;;;;;;;;14.70;40.70;;;;;;5033207;28;75223;-63
2021/04/13 02:11:05;;;;;;;;;;;14.70;40.60;;;;;;5033146;28;75256;-64
2021/04/13 02:13:33;;;;;;;;;;;14.60;40.30;;;;;;5033176;28;74605;-63
2021/04/13 02:16:04;;;;;;;;;;;14.60;40.40;;;;;;5033162;28;75292;-62
2021/04/13 02:18:30;;;;;;;;;;;14.60;40.10;;;;;;5031306;28;78680;-63
2021/04/13 02:20:56;;;;;;;;;;;14.60;39.90;;;;;;5032956;28;75188;-64
2021/04/13 02:23:27;;;;;;;;;;;14.60;40.00;;;;;;5033471;28;75692;-63
2021/04/13 02:25:53;;;;;;;;;;;14.60;40.20;;;;;;5031060;28;77694;-61
2021/04/13 02:28:19;;;;;;;;;;;14.60;40.30;;;;;;5031377;28;75368;-63
2021/04/13 02:30:46;;;;;;;;;;;14.60;40.20;;;;;;5032683;28;75431;-64
2021/04/13 02:33:18;;;;;;;;;;;14.60;40.70;;;;;;5032898;28;75519;-62
2021/04/13 02:35:44;;;;;;;;;;;14.60;41.10;;;;;;5031582;28;74834;-66
2021/04/13 02:38:15;;;;;;;;;;;14.60;41.30;;;;;;5032721;28;75801;-66
2021/04/13 02:40:47;;;;;;;;;;;14.60;41.00;;;;;;5032993;28;74406;-64
2021/04/13 02:43:18;;;;;;;;;;;14.50;41.00;;;;;;5032415;28;75297;-67
2021/04/13 02:45:43;;;;;;;;;;;14.50;41.40;;;;;;5031168;28;76212;-62
2021/04/13 02:48:17;;;;;;;;;;;14.50;41.70;;;;;;5030877;28;76888;-61
2021/04/13 02:50:45;;;;;;;;;;;14.50;41.40;;;;;;5031096;28;77739;-61
2021/04/13 02:53:13;;;;;;;;;;;14.50;41.40;;;;;;5032586;28;75691;-62
2021/04/13 02:55:40;;;;;;;;;;;14.40;41.70;;;;;;5030806;28;75762;-62
2021/04/13 02:58:08;;;;;;;;;;;14.50;42.10;;;;;;5032500;28;75640;-62
2021/04/13 03:00:41;;;;;;;;;;;14.40;42.00;;;;;;5030935;28;77709;-63
2021/04/13 03:03:10;;;;;;;;;;;14.50;42.20;;;;;;5032434;28;75653;-63
2021/04/13 03:05:36;;;;;;;;;;;14.50;42.20;;;;;;5030254;28;77708;-63
2021/04/13 03:08:05;;;;;;;;;;;14.50;42.30;;;;;;5032856;28;74528;-64
2021/04/13 03:10:32;;;;;;;;;;;14.50;42.20;;;;;;5032369;28;75886;-63
2021/04/13 03:13:00;;;;;;;;;;;14.50;42.10;;;;;;5030689;28;78255;-62
2021/04/13 03:15:29;;;;;;;;;;;14.50;42.10;;;;;;5030567;28;76223;-62
2021/04/13 03:17:56;;;;;;;;;;;14.50;42.20;;;;;;5030502;28;77186;-63
2021/04/13 03:20:30;;;;;;;;;;;14.40;41.50;;;;;;5031798;28;75239;-63
2021/04/13 03:22:58;;;;;;;;;;;14.40;40.80;;;;;;5031950;28;75186;-62
2021/04/13 03:25:25;;;;;;;;;;;14.40;40.80;;;;;;5031868;28;75253;-62
2021/04/13 03:27:51;;;;;;;;;;;14.40;40.40;;;;;;5032435;28;74816;-63
2021/04/13 03:30:27;;;;;;;;;;;14.30;40.60;;;;;;5030336;28;77025;-63
2021/04/13 03:32:58;;;;;;;;;;;14.30;41.00;;;;;;5032062;28;75498;-62
2021/04/13 03:35:25;;;;;;;;;;;14.20;41.20;;;;;;5032430;28;75196;-63
2021/04/13 03:37:52;;;;;;;;;;;14.10;41.10;;;;;;5030454;28;75643;-66
2021/04/13 03:40:18;;;;;;;;;;;14.20;41.40;;;;;;5031648;28;75232;-63
2021/04/13 03:42:44;;;;;;;;;;;14.00;41.30;;;;;;5030345;28;77407;-62
2021/04/13 03:45:12;;;;;;;;;;;13.90;41.20;;;;;;5031778;28;75161;-64
2021/04/13 03:47:39;;;;;;;;;;;13.90;41.30;;;;;;5031077;28;76237;-64
2021/04/13 03:50:06;;;;;;;;;;;13.90;41.70;;;;;;5032025;28;74394;-64
2021/04/13 03:52:33;;;;;;;;;;;13.80;41.80;;;;;;5031617;28;75015;-63
2021/04/13 03:55:12;;;;;;;;;;;13.80;42.20;;;;;;5030405;28;75651;-63
2021/04/13 03:57:38;;;;;;;;;;;13.70;42.50;;;;;;5031965;28;75840;-64
2021/04/13 04:00:06;;;;;;;;;;;13.70;43.00;;;;;;5031664;28;75141;-63
2021/04/13 04:02:32;;;;;;;;;;;13.70;42.80;;;;;;5031628;28;75808;-62
2021/04/13 04:05:03;;;;;;;;;;;13.60;42.80;;;;;;5029588;28;77212;-62
2021/04/13 04:07:37;;;;;;;;;;;13.60;42.80;;;;;;5030135;28;76659;-63
2021/04/13 04:10:21;;;;;;;;;;;13.50;42.80;;;;;;5031473;28;75240;-66
2021/04/13 04:12:56;;;;;;;;;;;13.40;42.80;;;;;;5029912;28;75050;-64
2021/04/13 04:15:26;;;;;;;;;;;13.40;42.50;;;;;;5031377;28;75216;-63
2021/04/13 04:17:52;;;;;;;;;;;13.30;42.90;;;;;;5029858;28;78027;-62
2021/04/13 04:20:30;;;;;;;;;;;13.30;43.00;;;;;;5029719;28;76232;-63
2021/04/13 04:22:55;;;;;;;;;;;13.30;43.10;;;;;;5037853;27;74587;-63
2021/04/13 04:25:21;;;;;;;;;;;13.30;43.20;;;;;;5039723;28;76345;-62
2021/04/13 04:27:47;;;;;;;;;;;13.20;43.30;;;;;;5044258;28;75093;-62
2021/04/13 04:30:30;;;;;;;;;;;13.20;42.80;;;;;;5049881;28;77018;-62
2021/04/13 04:32:57;;;;;;;;;;;13.10;42.60;;;;;;5051420;28;74469;-63
2021/04/13 04:35:49;;;;;;;;;;;13.20;42.90;;;;;;5031549;28;74541;-63
2021/04/13 04:38:31;;;;;;;;;;;13.10;42.90;;;;;;5027121;28;77149;-63
2021/04/13 04:41:01;;;;;;;;;;;13.10;43.00;;;;;;5046141;28;77567;-68
2021/04/13 04:43:39;;;;;;;;;;;13.10;43.20;;;;;;5048358;28;78345;-65
2021/04/13 04:46:05;;;;;;;;;;;13.10;43.10;;;;;;5034546;28;75197;-69
2021/04/13 04:48:35;;;;;;;;;;;13.10;43.20;;;;;;5034545;28;75080;-66
2021/04/13 04:51:05;;;;;;;;;;;13.20;43.10;;;;;;5034466;28;75266;-67
2021/04/13 04:53:32;;;;;;;;;;;13.20;43.30;;;;;;5049536;28;75943;-65
2021/04/13 04:55:58;;;;;;;;;;;13.20;43.40;;;;;;5050008;28;74622;-65
2021/04/13 04:58:24;;;;;;;;;;;13.30;43.20;;;;;;5050127;27;74772;-67
2021/04/13 05:00:50;;;;;;;;;;;13.20;42.80;;;;;;5034777;28;75043;-70
2021/04/13 05:03:17;;;;;;;;;;;13.30;42.80;;;;;;5049768;28;77166;-67
2021/04/13 05:05:43;;;;;;;;;;;13.30;42.90;;;;;;5048742;28;77254;-64
2021/04/13 05:08:09;;;;;;;;;;;13.30;43.10;;;;;;5049457;28;75833;-65
2021/04/13 05:10:34;;;;;;;;;;;13.30;43.10;;;;;;5049760;27;75557;-64
2021/04/13 05:13:00;;;;;;;;;;;13.30;43.30;;;;;;5049293;28;74645;-68
2021/04/13 05:15:26;;;;;;;;;;;13.30;43.20;;;;;;5034355;28;75281;-66
2021/04/13 05:17:51;;;;;;;;;;;13.30;43.40;;;;;;5049311;28;76559;-63
2021/04/13 05:20:17;;;;;;;;;;;13.30;43.40;;;;;;5034343;28;75197;-64
2021/04/13 05:22:43;;;;;;;;;;;13.30;43.40;;;;;;5049325;28;75399;-64
2021/04/13 05:25:09;;;;;;;;;;;13.30;43.60;;;;;;5048758;28;75655;-64
2021/04/13 05:27:35;;;;;;;;;;;13.30;43.60;;;;;;5034234;28;74417;-64
2021/04/13 05:30:01;;;;;;;;;;;13.20;44.00;;;;;;5034113;28;74465;-64
2021/04/13 05:32:26;;;;;;;;;;;13.30;44.00;;;;;;5033984;28;75681;-69
2021/04/13 05:34:52;;;;;;;;;;;13.30;44.10;;;;;;5050203;28;75334;-66
2021/04/13 05:37:18;;;;;;;;;;;13.30;44.10;;;;;;5050556;28;76072;-63
2021/04/13 05:39:43;;;;;;;;;;;13.30;43.70;;;;;;5052347;27;74970;-70
2021/04/13 05:42:17;;;;;;;;;;;13.30;44.00;;;;;;5051095;27;78466;-63
2021/04/13 05:44:43;;;;;;;;;;;13.30;44.00;;;;;;5053317;28;75224;-64
2021/04/13 05:47:08;;;;;;;;;;;13.30;44.20;;;;;;5054045;27;75361;-71
2021/04/13 05:49:34;;;;;;;;;;;13.30;44.00;;;;;;5053145;27;75735;-68
2021/04/13 05:51:59;;;;;;;;;;;13.40;43.90;;;;;;5053041;28;75229;-69
2021/04/13 05:54:25;;;;;;;;;;;13.40;44.10;;;;;;5051495;27;78137;-71
2021/04/13 05:56:50;;;;;;;;;;;13.30;44.20;;;;;;5054038;28;75148;-63
2021/04/13 05:59:16;;;;;;;;;;;13.30;44.30;;;;;;5053828;28;75320;-65
2021/04/13 06:01:48;;;;;;;;;;;13.30;44.30;;;;;;5053552;28;75102;-67
2021/04/13 06:04:13;;;;;;;;;;;13.40;44.60;;;;;;5052855;28;76868;-67
2021/04/13 06:06:39;;;;;;;;;;;13.40;44.50;;;;;;5052536;28;75545;-65
2021/04/13 06:09:05;;;;;;;;;;;13.40;44.60;;;;;;5053601;28;75830;-67
2021/04/13 06:11:31;;;;;;;;;;;13.40;44.80;;;;;;5053173;28;76323;-70
2021/04/13 06:13:58;;;;;;;;;;;13.40;44.80;;;;;;5052770;28;76431;-64
2021/04/13 06:16:27;;;;;;;;;;;13.40;44.90;;;;;;5051778;28;76878;-69
2021/04/13 06:18:52;;;;;;;;;;;13.50;44.80;;;;;;5053608;28;75216;-69
2021/04/13 06:21:18;;;;;;;;;;;13.50;45.00;;;;;;5053364;28;74780;-67
2021/04/13 06:23:44;;;;;;;;;;;13.60;45.10;;;;;;5050980;28;78464;-69
2021/04/13 06:26:09;;;;;;;;;;;13.60;44.80;;;;;;5050668;27;75357;-70
2021/04/13 06:28:35;;;;;;;;;;;13.60;44.90;;;;;;5050374;28;77131;-68
2021/04/13 06:31:00;;;;;;;;;;;13.70;45.00;;;;;;5052853;27;76356;-70
2021/04/13 06:33:28;;;;;;;;;;;13.70;44.80;;;;;;5047611;27;75366;-68
2021/04/13 06:35:57;;;;;;;;;;;13.70;44.90;;;;;;5046720;28;75112;-68
2021/04/13 06:38:24;;;;;;;;;;;13.70;44.90;;;;;;5040905;28;75853;-69
2021/04/13 06:40:56;;;;;;;;;;;13.80;45.50;;;;;;5052462;28;75735;-69
2021/04/13 06:43:28;;;;;;;;;;;13.70;45.40;;;;;;5052084;28;75464;-69
2021/04/13 06:46:06;;;;;;;;;;;13.80;45.30;;;;;;5052431;27;75144;-70
2021/04/13 06:48:37;;;;;;;;;;;13.80;45.30;;;;;;5053248;28;74535;-71
2021/04/13 06:51:11;;;;;;;;;;;13.90;45.50;;;;;;5051821;27;75716;-69
2021/04/13 06:53:56;;;;;;;;;;;13.90;45.10;;;;;;5048322;28;78225;-68
2021/04/13 06:56:25;;;;;;;;;;;14.00;45.20;;;;;;5051903;28;74945;-68
2021/04/13 06:59:06;;;;;;;;;;;14.00;45.10;;;;;;5050516;28;78156;-69
2021/04/13 07:01:52;;;;;;;;;;;14.00;45.00;;;;;;5051618;28;75240;-66
2021/04/13 07:04:17;;;;;;;;;;;14.00;45.20;;;;;;5048061;28;77592;-68
2021/04/13 07:06:46;;;;;;;;;;;14.10;45.40;;;;;;5048626;27;76079;-70
2021/04/13 07:09:12;;;;;;;;;;;14.20;45.30;;;;;;5050551;28;75093;-69
2021/04/13 07:11:40;;;;;;;;;;;14.20;45.40;;;;;;5052011;28;75235;-68
2021/04/13 07:14:15;;;;;;;;;;;14.20;45.10;;;;;;5050243;28;76522;-68
2021/04/13 07:16:52;;;;;;;;;;;14.30;45.40;;;;;;5051747;27;75375;-68
2021/04/13 07:19:21;;;;;;;;;;;14.40;45.30;;;;;;5052349;28;74748;-68
2021/04/13 07:21:57;;;;;;;;;;;14.40;45.00;;;;;;5050717;28;76859;-69
2021/04/13 07:24:29;;;;;;;;;;;14.40;44.80;;;;;;5051612;28;75560;-69
2021/04/13 07:27:03;;;;;;;;;;;14.50;44.90;;;;;;5050222;28;77145;-68
2021/04/13 07:29:34;;;;;;;;;;;14.60;44.50;;;;;;5050130;28;76647;-68
2021/04/13 07:32:11;;;;;;;;;;;14.60;44.60;;;;;;5050618;28;75332;-68
2021/04/13 07:34:40;;;;;;;;;;;14.70;44.80;;;;;;5049595;28;75913;-70
2021/04/13 07:37:17;;;;;;;;;;;14.70;44.90;;;;;;5051359;28;74616;-68
2021/04/13 07:39:47;;;;;;;;;;;14.70;45.10;;;;;;5051706;28;75323;-68
2021/04/13 07:42:36;;;;;;;;;;;14.70;45.40;;;;;;5050186;28;76671;-69
2021/04/13 07:45:08;;;;;;;;;;;14.80;45.60;;;;;;5050643;27;76415;-68
2021/04/13 07:47:49;;;;;;;;;;;14.90;45.20;;;;;;5036611;27;75177;-68
2021/04/13 07:50:16;;;;;;;;;;;15.10;44.90;;;;;;5036510;28;75586;-68
2021/04/13 07:52:58;;;;;;;;;;;15.30;44.80;;;;;;5043622;28;75385;-69
2021/04/13 07:55:28;;;;;;;;;;;15.40;44.30;;;;;;5045310;28;78217;-69
2021/04/13 07:58:01;;;;;;;;;;;15.60;43.90;;;;;;5047838;28;78138;-68
2021/04/13 08:00:32;;;;;;;;;;;15.80;43.60;;;;;;5050464;27;75272;-68
2021/04/13 08:03:09;;;;;;;;;;;15.90;43.00;;;;;;5047375;28;75497;-68
2021/04/13 08:05:37;;;;;;;;;;;15.90;43.20;;;;;;5049169;27;75523;-67
2021/04/13 08:08:06;;;;;;;;;;;16.00;43.40;;;;;;5048269;28;77263;-65
2021/04/13 08:10:31;;;;;;;;;;;16.00;43.40;;;;;;5047993;27;75329;-69
2021/04/13 08:12:58;;;;;;;;;;;16.00;43.40;;;;;;5045439;28;77657;-69
2021/04/13 08:15:43;;;;;;;;;;;16.00;43.80;;;;;;5049354;28;75151;-69
2021/04/13 08:18:26;;;;;;;;;;;15.90;44.90;;;;;;5043072;28;75369;-66
2021/04/13 08:20:54;;;;;;;;;;;15.80;45.60;;;;;;5051003;28;75364;-69
2021/04/13 08:23:22;;;;;;;;;;;15.70;46.40;;;;;;5051642;28;74766;-69
2021/04/13 08:25:49;;;;;;;;;;;15.60;48.00;;;;;;5051135;28;78000;-67
2021/04/13 08:28:29;;;;;;;;;;;15.50;47.90;;;;;;5052566;27;75769;-67
2021/04/13 08:33:59;;;;;;;;;;;15.40;49.60;;;;;;5050001;28;74994;-71
2021/04/13 08:36:27;;;;;;;;;;;15.40;50.60;;;;;;5052097;28;76350;-69
2021/04/13 08:39:01;;;;;;;;;;;15.50;50.60;;;;;;5052377;28;75281;-69
2021/04/13 08:41:36;;;;;;;;;;;15.50;51.80;;;;;;5051287;28;76473;-70
2021/04/13 08:44:12;;;;;;;;;;;15.60;51.60;;;;;;5050985;28;75398;-71
2021/04/13 08:46:51;;;;;;;;;;;15.50;51.70;;;;;;5049287;28;77696;-70
2021/04/13 08:49:26;;;;;;;;;;;15.40;51.50;;;;;;5046590;27;75272;-68
2021/04/13 08:52:13;;;;;;;;;;;15.30;51.80;;;;;;5049224;28;75239;-71
2021/04/13 08:54:42;;;;;;;;;;;15.30;52.10;;;;;;5048566;28;77225;-69
2021/04/13 08:57:21;;;;;;;;;;;15.40;52.50;;;;;;5052548;28;75973;-68
2021/04/13 08:59:52;;;;;;;;;;;15.50;52.40;;;;;;5051639;28;75190;-69
2021/04/13 09:02:28;;;;;;;;;;;15.70;53.00;;;;;;5049585;28;74707;-66
2021/04/13 09:05:14;;;;;;;;;;;15.80;52.50;;;;;;5050526;28;75400;-69
2021/04/13 09:07:52;;;;;;;;;;;15.90;52.30;;;;;;5047596;27;75145;-66
2021/04/13 09:10:35;;;;;;;;;;;16.00;52.70;;;;;;5049798;28;75294;-67
2021/04/13 09:13:19;;;;;;;;;;;16.20;52.80;;;;;;5048770;28;75487;-67
2021/04/13 09:15:55;;;;;;;;;;;16.30;52.50;;;;;;5046599;28;76894;-69
2021/04/13 09:18:50;;;;;;;;;;;16.40;52.90;;;;;;5048745;28;75605;-66
2021/04/13 09:21:15;;;;;;;;;;;16.40;52.40;;;;;;5046935;27;74812;-68
2021/04/13 09:23:44;;;;;;;;;;;16.40;51.80;;;;;;5052389;28;75907;-66
2021/04/13 09:26:16;;;;;;;;;;;16.30;51.60;;;;;;5051580;27;75067;-68
2021/04/13 09:28:55;;;;;;;;;;;16.30;52.40;;;;;;5047745;27;75458;-68
2021/04/13 09:31:28;;;;;;;;;;;16.40;52.80;;;;;;5048277;28;74730;-65
2021/04/13 09:34:12;;;;;;;;;;;16.40;52.00;;;;;;5050652;28;75500;-65
2021/04/13 09:36:54;;;;;;;;;;;16.40;52.40;;;;;;5047442;28;76892;-66
2021/04/13 09:39:30;;;;;;;;;;;16.20;52.30;;;;;;5051275;28;75843;-65
2021/04/13 09:42:13;;;;;;;;;;;16.10;52.40;;;;;;5049582;28;76104;-65
2021/04/13 09:44:38;;;;;;;;;;;16.00;53.30;;;;;;5049208;28;76105;-65
2021/04/13 09:47:08;;;;;;;;;;;15.90;53.30;;;;;;5049545;28;75042;-66
2021/04/13 09:49:37;;;;;;;;;;;15.90;53.60;;;;;;5051573;28;75274;-66
2021/04/13 09:52:09;;;;;;;;;;;15.90;53.60;;;;;;5051593;28;76137;-65
2021/04/13 09:54:43;;;;;;;;;;;15.90;53.60;;;;;;5048500;28;75735;-65
2021/04/13 09:57:32;;;;;;;;;;;15.90;54.20;;;;;;5053326;28;74576;-68
2021/04/13 10:00:13;;;;;;;;;;;15.90;54.90;;;;;;5032008;27;75775;-69
2021/04/13 10:02:38;;;;;;;;;;;15.90;55.00;;;;;;5053402;28;75162;-68
2021/04/13 10:05:13;;;;;;;;;;;15.90;54.80;;;;;;5052030;28;75092;-66
2021/04/13 10:07:47;;;;;;;;;;;15.90;54.80;;;;;;5046773;28;75181;-66
2021/04/13 10:10:21;;;;;;;;;;;15.90;55.10;;;;;;5049856;27;75753;-66
2021/04/13 10:12:56;;;;;;;;;;;15.90;55.20;;;;;;5049830;28;74741;-67
2021/04/13 10:15:35;;;;;;;;;;;15.90;54.60;;;;;;5051096;28;76086;-65
2021/04/13 10:18:19;;;;;;;;;;;16.10;54.20;;;;;;5052694;28;76291;-67
2021/04/13 10:21:12;;;;;;;;;;;16.20;53.20;;;;;;5052099;28;75586;-65
2021/04/13 10:24:01;;;;;;;;;;;16.30;52.80;;;;;;5051645;28;76577;-66
2021/04/13 10:26:45;;;;;;;;;;;16.30;52.60;;;;;;5045763;28;75721;-66
2021/04/13 10:29:32;;;;;;;;;;;16.30;52.80;;;;;;5050023;28;77490;-66
2021/04/13 10:31:58;;;;;;;;;;;16.30;52.60;;;;;;5053276;28;74737;-66
2021/04/13 10:34:39;;;;;;;;;;;16.50;52.70;;;;;;5051676;27;74978;-66
2021/04/13 10:37:09;;;;;;;;;;;16.70;52.20;;;;;;5049100;28;75328;-65
2021/04/13 10:39:41;;;;;;;;;;;17.00;51.60;;;;;;5052480;27;75471;-65
2021/04/13 10:42:13;;;;;;;;;;;17.00;51.50;;;;;;5052998;28;75228;-64
2021/04/13 10:44:57;;;;;;;;;;;17.10;51.00;;;;;;5039049;28;75200;-65
2021/04/13 10:47:24;;;;;;;;;;;17.20;50.30;;;;;;5050962;28;74457;-69
2021/04/13 10:50:04;;;;;;;;;;;17.40;50.40;;;;;;5052454;27;74541;-67
2021/04/13 10:52:42;;;;;;;;;;;17.50;49.90;;;;;;5052467;27;75242;-68
2021/04/13 10:55:23;;;;;;;;;;;17.90;49.60;;;;;;5050995;28;75436;-68
2021/04/13 10:57:55;;;;;;;;;;;18.20;48.60;;;;;;5050457;28;77325;-68
2021/04/13 11:00:26;;;;;;;;;;;18.50;48.50;;;;;;5050747;28;77293;-67
2021/04/13 11:03:11;;;;;;;;;;;18.80;47.90;;;;;;5050414;28;75525;-66
2021/04/13 11:05:55;;;;;;;;;;;18.90;48.00;;;;;;5051899;28;75242;-64
2021/04/13 11:08:59;;;;;;;;;;;18.90;47.40;;;;;;5050609;28;74857;-67
2021/04/13 11:11:25;;;;;;;;;;;19.00;47.40;;;;;;4991826;28;75719;-68
2021/04/13 11:13:59;;;;;;;;;;;19.10;46.20;;;;;;5008981;28;75817;-68
2021/04/13 11:16:27;;;;;;;;;;;19.10;46.70;;;;;;5029506;27;76400;-67
2021/04/13 11:19:19;;;;;;;;;;;19.20;46.60;;;;;;5049457;28;77507;-68
2021/04/13 11:22:09;;;;;;;;;;;19.30;46.30;;;;;;5049405;28;75356;-67
2021/04/13 11:24:38;;;;;;;;;;;19.40;45.50;;;;;;5050653;28;74709;-66
2021/04/13 11:27:26;;;;;;;;;;;19.40;44.70;;;;;;5050079;28;75448;-65
2021/04/13 11:29:55;;;;;;;;;;;19.40;44.50;;;;;;5015002;28;77489;-65
2021/04/13 11:32:24;;;;;;;;;;;19.40;44.20;;;;;;5049029;28;77259;-67
2021/04/13 11:34:49;;;;;;;;;;;19.50;44.20;;;;;;5051092;28;74579;-66
2021/04/13 11:37:33;;;;;;;;;;;19.60;44.30;;;;;;5051963;28;75688;-69
2021/04/13 11:40:02;;;;;;;;;;;19.80;43.70;;;;;;5050359;28;77801;-66
2021/04/13 11:42:30;;;;;;;;;;;19.90;43.40;;;;;;5051488;28;75839;-72
2021/04/13 11:45:14;;;;;;;;;;;20.10;42.70;;;;;;5048776;28;75593;-66
2021/04/13 11:47:55;;;;;;;;;;;20.30;42.30;;;;;;5048130;28;75440;-67
2021/04/13 11:50:41;;;;;;;;;;;20.50;42.20;;;;;;5050884;28;74666;-72
2021/04/13 11:53:08;;;;;;;;;;;21.50;40.20;;;;;;5054570;28;75738;-70
2021/04/13 11:55:46;;;;;;;;;;;22.30;39.10;;;;;;5054986;28;76001;-67
2021/04/13 11:58:26;;;;;;;;;;;23.10;37.50;;;;;;5053241;28;74839;-65
2021/04/13 12:00:52;;;;;;;;;;;24.20;35.20;;;;;;5055272;28;75303;-67
2021/04/13 12:03:17;;;;;;;;;;;24.30;34.80;;;;;;5053637;28;76866;-65
2021/04/13 12:05:45;;;;;;;;;;;23.90;35.30;;;;;;5054552;28;75189;-65
2021/04/13 12:08:31;;;;;;;;;;;23.30;36.10;;;;;;5053217;28;76284;-64
2021/04/13 12:10:57;;;;;;;;;;;22.60;36.70;;;;;;5046347;28;75190;-65
2021/04/13 12:13:37;;;;;;;;;;;21.80;37.60;;;;;;5051332;28;75192;-70
2021/04/13 12:16:04;;;;;;;;;;;21.30;37.60;;;;;;5051749;28;77304;-65
2021/04/13 12:18:35;;;;;;;;;;;20.80;38.50;;;;;;5054619;27;75253;-69
2021/04/13 12:21:19;;;;;;;;;;;20.40;39.20;;;;;;5054892;28;75473;-70
2021/04/13 12:23:48;;;;;;;;;;;20.10;39.60;;;;;;5053294;28;75718;-70
2021/04/13 12:26:27;;;;;;;;;;;19.70;39.70;;;;;;5053252;28;75256;-70
2021/04/13 12:28:53;;;;;;;;;;;19.50;40.40;;;;;;5054653;28;75772;-70
2021/04/13 12:31:24;;;;;;;;;;;19.40;41.00;;;;;;5052846;28;76712;-66
2021/04/13 12:33:56;;;;;;;;;;;19.20;42.20;;;;;;5054060;27;75382;-67
2021/04/13 12:36:42;;;;;;;;;;;19.10;41.50;;;;;;5054295;27;74892;-68
2021/04/13 12:39:08;;;;;;;;;;;18.90;41.80;;;;;;5054843;28;75258;-70
2021/04/13 12:41:53;;;;;;;;;;;18.60;41.70;;;;;;5054482;27;75645;-68
2021/04/13 12:44:18;;;;;;;;;;;18.50;42.50;;;;;;5052988;28;77593;-66
2021/04/13 12:46:52;;;;;;;;;;;18.20;42.50;;;;;;5047339;27;75442;-72
2021/04/13 12:49:20;;;;;;;;;;;18.10;43.70;;;;;;5053231;28;74692;-67
2021/04/13 12:52:07;;;;;;;;;;;17.90;44.90;;;;;;5052637;28;75728;-68
2021/04/13 12:54:33;;;;;;;;;;;17.80;45.80;;;;;;5052518;28;77500;-65
2021/04/13 12:57:01;;;;;;;;;;;17.60;47.30;;;;;;5052352;28;75477;-64
2021/04/13 12:59:28;;;;;;;;;;;17.50;47.40;;;;;;5053280;28;77051;-68
2021/04/13 13:01:54;;;;;;;;;;;17.40;48.10;;;;;;5053018;28;74588;-71
2021/04/13 13:04:21;;;;;;;;;;;17.30;47.80;;;;;;5041387;27;75900;-66
2021/04/13 13:06:54;;;;;;;;;;;17.10;48.70;;;;;;5054662;27;74481;-69
2021/04/13 13:09:24;;;;;;;;;;;17.10;49.20;;;;;;5052795;28;77410;-69
2021/04/13 13:12:08;;;;;;;;;;;17.00;50.10;;;;;;5052986;28;76202;-67
2021/04/13 13:14:38;;;;;;;;;;;16.90;49.00;;;;;;5046950;28;75156;-69
2021/04/13 13:17:03;;;;;;;;;;;16.90;50.90;;;;;;5051584;28;75184;-65
2021/04/13 13:19:33;;;;;;;;;;;17.00;49.90;;;;;;5049633;28;76070;-65
2021/04/13 13:22:01;;;;;;;;;;;17.40;50.20;;;;;;5054360;28;75331;-70
2021/04/13 13:24:31;;;;;;;;;;;17.70;49.40;;;;;;5054979;28;75031;-67
2021/04/13 13:26:57;;;;;;;;;;;17.90;49.90;;;;;;5054175;28;75257;-67
2021/04/13 13:29:22;;;;;;;;;;;18.00;49.20;;;;;;5054034;28;74598;-68
2021/04/13 13:31:48;;;;;;;;;;;18.00;48.50;;;;;;5054192;28;75653;-68
2021/04/13 13:34:16;;;;;;;;;;;18.20;49.80;;;;;;5052814;28;77344;-67
2021/04/13 13:36:43;;;;;;;;;;;18.20;49.00;;;;;;5053086;28;79044;-67
2021/04/13 13:39:11;;;;;;;;;;;18.00;47.20;;;;;;5054242;28;75262;-68
2021/04/13 13:41:42;;;;;;;;;;;17.80;48.20;;;;;;5053927;28;75877;-68
2021/04/13 13:44:23;;;;;;;;;;;17.60;47.60;;;;;;5053949;28;75378;-67
2021/04/13 13:47:08;;;;;;;;;;;17.50;47.70;;;;;;5054125;28;76818;-68
2021/04/13 13:49:45;;;;;;;;;;;17.50;48.80;;;;;;5051439;28;78178;-67
2021/04/13 13:52:12;;;;;;;;;;;17.40;48.70;;;;;;5053902;28;76009;-67
2021/04/13 13:54:38;;;;;;;;;;;17.30;47.30;;;;;;5052485;28;78454;-69
2021/04/13 13:57:08;;;;;;;;;;;17.10;48.80;;;;;;5052325;28;77910;-69
2021/04/13 13:59:38;;;;;;;;;;;17.00;48.60;;;;;;5054099;28;75094;-68
2021/04/13 14:02:09;;;;;;;;;;;16.90;49.10;;;;;;5053688;28;75236;-67
2021/04/13 14:04:39;;;;;;;;;;;16.90;49.00;;;;;;5051994;28;77686;-68
2021/04/13 14:07:06;;;;;;;;;;;16.90;49.10;;;;;;5053937;28;74902;-69
2021/04/13 14:09:32;;;;;;;;;;;16.90;49.60;;;;;;5052350;28;75733;-69
2021/04/13 14:12:18;;;;;;;;;;;16.90;49.00;;;;;;5053636;28;75092;-69
2021/04/13 14:14:45;;;;;;;;;;;16.80;49.30;;;;;;5040652;27;77207;-69
2021/04/13 14:17:12;;;;;;;;;;;16.80;49.10;;;;;;5052338;28;75412;-68
2021/04/13 14:19:38;;;;;;;;;;;16.70;49.10;;;;;;5053736;28;74501;-69
2021/04/13 14:22:10;;;;;;;;;;;16.80;48.90;;;;;;5051932;28;74531;-68
2021/04/13 14:24:37;;;;;;;;;;;16.70;48.00;;;;;;5051586;28;75527;-67
2021/04/13 14:27:03;;;;;;;;;;;16.70;47.20;;;;;;5053349;28;74382;-69
2021/04/13 14:29:29;;;;;;;;;;;16.50;47.50;;;;;;5051781;28;76109;-67
2021/04/13 14:31:58;;;;;;;;;;;16.60;48.30;;;;;;5051842;28;77502;-67
2021/04/13 14:34:27;;;;;;;;;;;16.60;47.40;;;;;;5053875;28;75741;-67
2021/04/13 14:37:11;;;;;;;;;;;16.70;48.20;;;;;;5053450;28;75228;-68
2021/04/13 14:39:38;;;;;;;;;;;16.80;47.80;;;;;;5054152;28;74461;-71
2021/04/13 14:42:05;;;;;;;;;;;16.90;47.60;;;;;;5051986;28;76357;-66
2021/04/13 14:44:31;;;;;;;;;;;17.00;47.90;;;;;;5053359;28;74958;-69
2021/04/13 14:46:57;;;;;;;;;;;17.10;47.40;;;;;;5051726;28;77453;-67
2021/04/13 14:49:23;;;;;;;;;;;17.10;47.50;;;;;;5051525;28;77719;-67
2021/04/13 14:51:49;;;;;;;;;;;17.10;46.70;;;;;;5053100;28;75411;-69